createdAt,value
2019-04-27T00:00:53.496Z,24.20
2019-04-27T00:03:41.334Z,21.62
2019-04-27T00:06:21.087Z,28.17
2019-04-27T00:08:59.147Z,31.05
2019-04-27T00:11:30.517Z,23.25
2019-04-27T00:13:59.145Z,34.20
2019-04-27T00:16:50.583Z,32.83
2019-04-27T00:19:35.416Z,27.13
2019-04-27T00:22:04.453Z,26.27
2019-04-27T00:24:33.532Z,22.98
2019-04-27T00:27:03.342Z,32.30
2019-04-27T00:29:33.154Z,24.80
2019-04-27T00:32:01.819Z,26.80
2019-04-27T00:34:30.473Z,27.52
2019-04-27T00:37:16.805Z,21.50
2019-04-27T00:40:04.842Z,24.85
2019-04-27T00:42:35.619Z,28.38
2019-04-27T00:45:07.005Z,30.48
2019-04-27T00:47:37.576Z,25.00
2019-04-27T00:50:06.996Z,25.30
2019-04-27T00:52:35.563Z,24.15
2019-04-27T00:55:05.954Z,31.23
2019-04-27T00:57:39.116Z,27.00
2019-04-27T01:00:13.461Z,28.00
2019-04-27T01:02:46.721Z,23.92
2019-04-27T01:05:16.946Z,24.40
2019-04-27T01:07:45.618Z,29.98
2019-04-27T01:10:14.360Z,29.05
2019-04-27T01:12:43.075Z,26.77
2019-04-27T01:15:13.588Z,29.55
2019-04-27T01:17:42.065Z,26.25
2019-04-27T01:20:10.743Z,30.27
2019-04-27T01:22:39.325Z,23.07
2019-04-27T01:25:08.763Z,23.73
2019-04-27T01:27:39.397Z,25.08
2019-04-27T01:30:10.331Z,22.07
2019-04-27T01:32:39.204Z,24.92
2019-04-27T01:35:09.006Z,27.62
2019-04-27T01:37:38.660Z,24.60
2019-04-27T01:40:07.630Z,26.73
2019-04-27T01:42:36.962Z,22.87
2019-04-27T01:45:08.542Z,26.62
2019-04-27T01:47:37.108Z,24.63
2019-04-27T01:50:10.039Z,23.18
2019-04-27T01:52:38.699Z,26.70
2019-04-27T01:55:08.660Z,23.27
2019-04-27T01:57:38.663Z,27.45
2019-04-27T02:00:19.295Z,22.70
2019-04-27T02:02:49.622Z,24.10
2019-04-27T02:05:19.820Z,27.27
2019-04-27T02:07:49.144Z,23.12
2019-04-27T02:10:19.132Z,23.02
2019-04-27T02:12:48.692Z,24.82
2019-04-27T02:15:19.132Z,26.82
2019-04-27T02:17:50.688Z,28.02
2019-04-27T02:20:19.642Z,26.23
2019-04-27T02:22:48.517Z,24.72
2019-04-27T02:25:19.255Z,28.83
2019-04-27T02:27:50.430Z,23.25
2019-04-27T02:30:27.476Z,22.85
2019-04-27T02:33:06.707Z,22.22
2019-04-27T02:35:35.383Z,27.40
2019-04-27T02:38:04.104Z,29.05
2019-04-27T02:40:51.848Z,29.60
2019-04-27T02:43:22.597Z,26.17
2019-04-27T02:45:54.214Z,28.55
2019-04-27T02:48:22.972Z,25.33
2019-04-27T02:50:53.168Z,32.98
2019-04-27T02:53:29.623Z,26.05
2019-04-27T02:55:59.538Z,22.85
2019-04-27T02:58:28.190Z,30.60
2019-04-27T03:00:56.764Z,23.95
2019-04-27T03:03:26.319Z,26.07
2019-04-27T03:05:54.880Z,31.50
2019-04-27T03:08:23.462Z,21.93
2019-04-27T03:10:52.667Z,25.20
2019-04-27T03:13:25.339Z,35.48
2019-04-27T03:16:07.442Z,33.18
2019-04-27T03:18:43.581Z,31.07
2019-04-27T03:21:13.786Z,26.48
2019-04-27T03:23:42.433Z,30.17
2019-04-27T03:26:12.716Z,33.02
2019-04-27T03:28:41.414Z,25.62
2019-04-27T03:31:13.527Z,35.38
2019-04-27T03:33:43.043Z,30.00
2019-04-27T03:36:12.942Z,34.67
2019-04-27T03:38:40.957Z,33.13
2019-04-27T03:41:09.731Z,29.55
2019-04-27T03:43:40.293Z,33.13
2019-04-27T03:46:10.276Z,32.78
2019-04-27T03:48:40.729Z,35.92
2019-04-27T03:51:13.761Z,31.55
2019-04-27T03:53:46.929Z,28.40
2019-04-27T03:56:22.568Z,32.78
2019-04-27T03:58:52.961Z,37.93
2019-04-27T04:01:21.535Z,36.75
2019-04-27T04:03:51.116Z,33.95
2019-04-27T04:06:20.772Z,28.60
2019-04-27T04:08:54.903Z,33.98
2019-04-27T04:11:31.367Z,34.35
2019-04-27T04:14:04.621Z,33.42
2019-04-27T04:16:39.529Z,31.85
2019-04-27T04:19:11.421Z,34.13
2019-04-27T04:21:40.335Z,31.52
2019-04-27T04:24:11.661Z,40.40
2019-04-27T04:26:40.212Z,27.13
2019-04-27T04:29:10.390Z,33.78
2019-04-27T04:31:40.376Z,31.77
2019-04-27T04:34:11.786Z,24.72
2019-04-27T04:36:42.586Z,35.17
2019-04-27T04:39:11.922Z,35.05
2019-04-27T04:41:44.560Z,36.03
2019-04-27T04:44:23.885Z,30.15
2019-04-27T04:46:54.205Z,34.53
2019-04-27T04:49:22.777Z,34.18
2019-04-27T04:51:51.353Z,37.10
2019-04-27T04:54:24.184Z,38.45
2019-04-27T04:56:50.150Z,35.50
2019-04-27T04:59:20.117Z,27.82
2019-04-27T05:01:49.921Z,35.50
2019-04-27T05:04:19.351Z,32.13
2019-04-27T05:06:50.703Z,32.75
2019-04-27T05:09:19.493Z,27.52
2019-04-27T05:11:48.680Z,27.32
2019-04-27T05:14:17.394Z,24.65
2019-04-27T05:16:48.478Z,31.25
2019-04-27T05:19:19.122Z,24.90
2019-04-27T05:21:49.159Z,31.87
2019-04-27T05:24:19.264Z,25.75
2019-04-27T05:26:48.758Z,33.28
2019-04-27T05:29:18.922Z,22.67
2019-04-27T05:31:49.043Z,44.70
2019-04-27T05:34:19.546Z,26.82
2019-04-27T05:36:50.323Z,30.27
2019-04-27T05:39:24.742Z,30.48
2019-04-27T05:41:49.780Z,24.12
2019-04-27T05:44:32.513Z,25.10
2019-04-27T05:47:05.438Z,26.00
2019-04-27T05:49:36.380Z,28.00
2019-04-27T05:52:08.544Z,22.67
2019-04-27T05:54:38.552Z,23.92
2019-04-27T05:57:07.184Z,22.25
2019-04-27T05:59:35.759Z,27.13
2019-04-27T06:02:04.408Z,23.85
2019-04-27T06:04:32.993Z,16.85
2019-04-27T06:07:01.715Z,27.20
2019-04-27T06:09:30.277Z,22.13
2019-04-27T06:11:59.164Z,18.73
2019-04-27T06:14:29.323Z,22.70
2019-04-27T06:16:59.551Z,24.32
2019-04-27T06:19:29.158Z,24.57
2019-04-27T06:22:01.026Z,28.55
2019-04-27T06:24:29.792Z,26.42
2019-04-27T06:26:59.729Z,26.93
2019-04-27T06:29:29.264Z,29.87
2019-04-27T06:31:59.350Z,34.15
2019-04-27T06:34:30.646Z,27.55
2019-04-27T06:36:59.904Z,32.50
2019-04-27T06:39:29.796Z,32.53
2019-04-27T06:41:59.033Z,32.13
2019-04-27T06:44:29.333Z,35.03
2019-04-27T06:46:59.174Z,30.05
2019-04-27T06:49:29.400Z,28.10
2019-04-27T06:51:58.683Z,27.37
2019-04-27T06:54:28.847Z,33.23
2019-04-27T06:56:59.154Z,29.50
2019-04-27T06:59:29.006Z,31.95
2019-04-27T07:02:00.521Z,35.80
2019-04-27T07:04:29.404Z,31.48
2019-04-27T07:06:59.456Z,35.55
2019-04-27T07:09:29.512Z,30.32
2019-04-27T07:11:59.313Z,35.40
2019-04-27T07:14:29.474Z,33.05
2019-04-27T07:16:59.161Z,42.05
2019-04-27T07:19:28.997Z,35.35
2019-04-27T07:21:59.037Z,33.23
2019-04-27T07:24:29.245Z,44.53
2019-04-27T07:26:59.580Z,37.23
2019-04-27T07:29:29.278Z,38.95
2019-04-27T07:31:59.509Z,38.13
2019-04-27T07:34:28.664Z,36.25
2019-04-27T07:36:59.751Z,37.08
2019-04-27T07:39:29.367Z,36.98
2019-04-27T07:41:58.528Z,36.85
2019-04-27T07:44:43.750Z,36.50
2019-04-27T07:47:16.964Z,35.13
2019-04-27T07:49:46.718Z,36.13
2019-04-27T07:52:15.275Z,38.53
2019-04-27T07:54:44.202Z,36.88
2019-04-27T07:57:12.850Z,35.28
2019-04-27T07:59:42.079Z,41.25
2019-04-27T08:02:11.162Z,37.95
2019-04-27T08:04:41.833Z,40.95
2019-04-27T08:07:10.386Z,35.55
2019-04-27T08:09:40.043Z,37.48
2019-04-27T08:12:11.059Z,35.13
2019-04-27T08:14:40.004Z,32.50
2019-04-27T08:17:09.775Z,37.95
2019-04-27T08:19:39.596Z,36.93
2019-04-27T08:22:09.623Z,36.80
2019-04-27T08:24:44.193Z,39.58
2019-04-27T08:27:30.610Z,37.05
2019-04-27T08:30:17.122Z,34.88
2019-04-27T08:32:49.549Z,36.00
2019-04-27T08:35:19.490Z,32.63
2019-04-27T08:37:49.624Z,36.93
2019-04-27T08:40:19.300Z,29.82
2019-04-27T08:42:51.045Z,29.85
2019-04-27T08:45:19.473Z,28.70
2019-04-27T08:47:49.962Z,32.23
2019-04-27T08:50:19.152Z,31.68
2019-04-27T08:52:49.888Z,36.58
2019-04-27T08:55:19.588Z,34.25
2019-04-27T08:57:52.012Z,30.60
2019-04-27T09:02:50.363Z,35.30
2019-04-27T09:05:21.135Z,34.05
2019-04-27T09:07:59.450Z,30.40
2019-04-27T09:10:32.176Z,36.40
2019-04-27T09:13:02.435Z,29.98
2019-04-27T09:15:33.552Z,30.92
2019-04-27T09:18:02.962Z,38.90
2019-04-27T09:20:33.250Z,35.85
2019-04-27T09:23:02.821Z,34.35
2019-04-27T09:25:31.427Z,35.73
2019-04-27T09:28:00.031Z,31.25
2019-04-27T09:30:29.817Z,33.23
2019-04-27T09:32:58.801Z,35.65
2019-04-27T09:35:27.583Z,29.32
2019-04-27T09:37:56.345Z,34.10
2019-04-27T09:40:26.637Z,32.55
2019-04-27T09:42:57.031Z,30.10
2019-04-27T09:45:27.073Z,27.75
2019-04-27T09:47:56.299Z,28.65
2019-04-27T09:50:27.962Z,31.70
2019-04-27T09:52:55.724Z,29.18
2019-04-27T09:55:26.161Z,26.77
2019-04-27T09:57:56.735Z,27.05
2019-04-27T10:00:25.334Z,28.40
2019-04-27T10:02:53.919Z,34.55
2019-04-27T10:05:22.611Z,30.12
2019-04-27T10:07:51.185Z,27.10
2019-04-27T10:10:20.212Z,24.43
2019-04-27T10:12:48.798Z,24.90
2019-04-27T10:15:17.428Z,25.68
2019-04-27T10:17:46.941Z,27.37
2019-04-27T10:20:16.852Z,27.82
2019-04-27T10:22:46.310Z,28.25
2019-04-27T10:25:22.329Z,26.97
2019-04-27T10:27:52.693Z,28.85
2019-04-27T10:30:21.611Z,26.45
2019-04-27T10:32:50.175Z,34.85
2019-04-27T10:35:18.748Z,29.25
2019-04-27T10:37:47.366Z,32.90
2019-04-27T10:40:16.172Z,26.20
2019-04-27T10:42:45.900Z,30.37
2019-04-27T10:45:16.659Z,26.55
2019-04-27T10:47:46.033Z,31.23
2019-04-27T10:50:16.026Z,27.42
2019-04-27T10:52:53.347Z,24.80
2019-04-27T10:55:16.108Z,28.38
2019-04-27T10:57:44.789Z,31.37
2019-04-27T11:00:16.678Z,27.48
2019-04-27T11:02:45.299Z,24.45
2019-04-27T11:05:16.310Z,30.10
2019-04-27T11:07:46.344Z,26.23
2019-04-27T11:10:16.381Z,28.98
2019-04-27T11:12:47.494Z,29.15
2019-04-27T11:15:16.501Z,24.00
2019-04-27T11:17:45.851Z,22.95
2019-04-27T11:20:15.523Z,27.55
2019-04-27T11:22:44.118Z,23.42
2019-04-27T11:25:12.950Z,20.80
2019-04-27T11:27:41.478Z,29.55
2019-04-27T11:30:10.991Z,30.17
2019-04-27T11:32:39.740Z,29.00
2019-04-27T11:35:22.412Z,26.05
2019-04-27T11:37:53.530Z,25.85
2019-04-27T11:40:24.417Z,29.00
2019-04-27T11:42:52.993Z,25.52
2019-04-27T11:45:22.625Z,23.90
2019-04-27T11:47:51.187Z,30.88
2019-04-27T11:50:20.011Z,24.92
2019-04-27T11:52:48.666Z,28.20
2019-04-27T11:55:17.636Z,29.82
2019-04-27T11:57:47.054Z,26.27
2019-04-27T12:00:19.480Z,27.27
2019-04-27T12:02:48.093Z,23.45
2019-04-27T12:05:17.114Z,23.80
2019-04-27T12:07:47.743Z,24.20
2019-04-27T12:10:16.820Z,22.67
2019-04-27T12:12:46.374Z,23.60
2019-04-27T12:15:16.097Z,23.92
2019-04-27T12:17:46.119Z,23.90
2019-04-27T12:20:17.443Z,27.52
2019-04-27T12:22:45.584Z,23.12
2019-04-27T12:25:17.199Z,23.85
2019-04-27T12:28:03.117Z,24.15
2019-04-27T12:30:33.504Z,26.82
2019-04-27T12:33:02.213Z,24.90
2019-04-27T12:35:31.084Z,28.67
2019-04-27T12:37:59.695Z,25.60
2019-04-27T12:40:28.265Z,26.35
2019-04-27T12:42:56.839Z,20.43
2019-04-27T12:45:26.675Z,29.18
2019-04-27T12:47:56.559Z,25.05
2019-04-27T12:50:26.114Z,24.12
2019-04-27T12:53:11.587Z,24.15
2019-04-27T12:55:42.100Z,24.27
2019-04-27T12:58:21.189Z,24.70
2019-04-27T13:00:51.449Z,27.50
2019-04-27T13:03:21.183Z,25.35
2019-04-27T13:05:49.771Z,25.55
2019-04-27T13:08:18.443Z,29.57
2019-04-27T13:10:47.076Z,25.90
2019-04-27T13:13:16.668Z,24.02
2019-04-27T13:15:46.011Z,23.95
2019-04-27T13:18:16.557Z,24.63
2019-04-27T13:20:45.019Z,27.67
2019-04-27T13:23:14.470Z,29.37
2019-04-27T13:25:45.979Z,26.60
2019-04-27T13:28:14.585Z,23.77
2019-04-27T13:30:45.591Z,26.05
2019-04-27T13:33:17.278Z,24.25
2019-04-27T13:35:45.882Z,24.45
2019-04-27T13:38:17.834Z,28.27
2019-04-27T13:40:47.285Z,22.13
2019-04-27T13:43:23.523Z,26.73
2019-04-27T13:46:02.601Z,30.05
2019-04-27T13:48:32.833Z,29.25
2019-04-27T13:51:03.201Z,26.17
2019-04-27T13:53:31.893Z,27.87
2019-04-27T13:56:03.050Z,34.05
2019-04-27T13:58:31.619Z,28.92
2019-04-27T14:01:00.423Z,27.20
2019-04-27T14:03:28.991Z,30.08
2019-04-27T14:05:59.083Z,28.10
2019-04-27T14:08:29.092Z,28.30
2019-04-27T14:10:58.798Z,27.20
2019-04-27T14:13:28.847Z,27.55
2019-04-27T14:15:57.428Z,30.00
2019-04-27T14:18:26.007Z,27.50
2019-04-27T14:20:54.581Z,26.07
2019-04-27T14:23:25.240Z,29.80
2019-04-27T14:25:54.143Z,29.30
2019-04-27T14:28:22.767Z,28.23
2019-04-27T14:30:51.411Z,25.65
2019-04-27T14:33:19.991Z,25.45
2019-04-27T14:35:49.989Z,28.20
2019-04-27T14:38:19.133Z,26.65
2019-04-27T14:40:50.120Z,25.77
2019-04-27T14:43:18.964Z,28.38
2019-04-27T14:45:48.569Z,26.02
2019-04-27T14:48:18.519Z,31.00
2019-04-27T14:50:48.511Z,28.42
2019-04-27T14:53:17.312Z,27.20
2019-04-27T14:55:45.877Z,25.00
2019-04-27T14:58:14.755Z,23.52
2019-04-27T15:00:43.509Z,22.32
2019-04-27T15:03:12.095Z,21.07
2019-04-27T15:05:40.665Z,31.55
2019-04-27T15:08:09.927Z,22.77
2019-04-27T15:10:38.702Z,22.98
2019-04-27T15:13:08.324Z,24.82
2019-04-27T15:15:37.750Z,24.45
2019-04-27T15:18:06.716Z,25.75
2019-04-27T15:20:39.746Z,24.37
2019-04-27T15:23:07.295Z,26.77
2019-04-27T15:25:45.018Z,26.48
2019-04-27T15:28:12.157Z,30.12
2019-04-27T15:30:42.486Z,24.50
2019-04-27T15:33:16.196Z,27.02
2019-04-27T15:35:46.562Z,26.60
2019-04-27T15:38:18.609Z,28.67
2019-04-27T15:40:54.700Z,25.85
2019-04-27T15:43:27.286Z,31.48
2019-04-27T15:45:57.628Z,28.07
2019-04-27T15:48:30.685Z,28.50
2019-04-27T15:51:02.853Z,29.20
2019-04-27T15:53:28.448Z,26.33
2019-04-27T15:56:01.740Z,27.13
2019-04-27T15:58:29.247Z,33.50
2019-04-27T16:01:02.376Z,29.65
2019-04-27T16:03:31.364Z,27.67
2019-04-27T16:06:03.238Z,29.05
2019-04-27T16:08:30.195Z,25.50
2019-04-27T16:11:00.040Z,26.20
2019-04-27T16:13:32.918Z,30.10
2019-04-27T16:15:59.757Z,27.50
2019-04-27T16:18:29.228Z,30.82
2019-04-27T16:20:58.765Z,33.67
2019-04-27T16:23:28.268Z,33.92
2019-04-27T16:25:58.196Z,30.12
2019-04-27T16:28:27.302Z,27.07
2019-04-27T16:30:55.987Z,31.87
2019-04-27T16:33:24.590Z,29.27
2019-04-27T16:35:57.416Z,28.30
2019-04-27T16:38:26.627Z,28.62
2019-04-27T16:41:01.882Z,28.67
2019-04-27T16:43:30.033Z,29.23
2019-04-27T16:46:04.103Z,27.85
2019-04-27T16:48:34.384Z,26.20
2019-04-27T16:50:59.357Z,30.17
2019-04-27T16:53:30.093Z,30.65
2019-04-27T16:56:14.356Z,31.05
2019-04-27T16:58:39.509Z,29.30
2019-04-27T17:01:11.443Z,26.40
2019-04-27T17:03:41.481Z,26.27
2019-04-27T17:06:10.250Z,29.48
2019-04-27T17:08:39.377Z,29.75
2019-04-27T17:11:12.961Z,27.22
2019-04-27T17:13:44.402Z,29.15
2019-04-27T17:16:18.952Z,27.62
2019-04-27T17:18:49.248Z,31.45
2019-04-27T17:21:21.159Z,28.60
2019-04-27T17:23:48.224Z,27.35
2019-04-27T17:26:21.746Z,29.25
2019-04-27T17:28:54.617Z,37.08
2019-04-27T17:31:24.851Z,30.27
2019-04-27T17:34:00.729Z,33.18
2019-04-27T17:36:29.571Z,31.70
2019-04-27T17:38:58.457Z,29.25
2019-04-27T17:41:28.308Z,29.92
2019-04-27T17:43:58.937Z,27.73
2019-04-27T17:46:28.213Z,26.33
2019-04-27T17:49:00.004Z,27.15
2019-04-27T17:51:30.557Z,27.95
2019-04-27T17:53:58.618Z,25.77
2019-04-27T17:56:33.997Z,25.20
2019-04-27T17:58:58.637Z,27.60
2019-04-27T18:01:30.090Z,24.55
2019-04-27T18:03:59.970Z,30.25
2019-04-27T18:06:29.646Z,30.85
2019-04-27T18:09:00.674Z,30.65
2019-04-27T18:11:28.832Z,27.52
2019-04-27T18:14:00.353Z,25.57
2019-04-27T18:16:33.784Z,28.17
2019-04-27T18:19:07.988Z,30.92
2019-04-27T18:21:34.707Z,31.55
2019-04-27T18:24:08.659Z,29.63
2019-04-27T18:27:00.507Z,32.00
2019-04-27T18:29:27.625Z,29.35
2019-04-27T18:31:55.363Z,32.30
2019-04-27T18:34:25.200Z,31.33
2019-04-27T18:36:54.860Z,31.12
2019-04-27T18:39:23.449Z,29.87
2019-04-27T18:41:54.271Z,30.00
2019-04-27T18:44:23.971Z,28.80
2019-04-27T18:46:53.552Z,29.95
2019-04-27T18:49:39.183Z,28.45
2019-04-27T18:52:25.587Z,29.15
2019-04-27T18:54:54.242Z,25.00
2019-04-27T18:57:22.810Z,32.53
2019-04-27T18:59:52.296Z,28.62
2019-04-27T19:02:20.859Z,28.50
2019-04-27T19:04:50.137Z,29.12
2019-04-27T19:07:19.935Z,28.17
2019-04-27T19:09:49.600Z,31.73
2019-04-27T19:12:18.347Z,25.65
2019-04-27T19:14:49.808Z,27.17
2019-04-27T19:17:19.854Z,29.77
2019-04-27T19:19:48.587Z,30.97
2019-04-27T19:22:17.217Z,29.77
2019-04-27T19:24:45.801Z,30.15
2019-04-27T19:27:25.091Z,26.60
2019-04-27T19:29:55.304Z,28.23
2019-04-27T19:32:24.903Z,25.97
2019-04-27T19:34:53.468Z,27.65
2019-04-27T19:37:22.034Z,26.20
2019-04-27T19:39:50.657Z,28.62
2019-04-27T19:42:20.333Z,29.37
2019-04-27T19:44:49.479Z,27.55
2019-04-27T19:47:18.090Z,26.80
2019-04-27T19:49:46.659Z,28.45
2019-04-27T19:52:15.291Z,23.80
2019-04-27T19:54:44.221Z,25.27
2019-04-27T19:57:12.787Z,26.75
2019-04-27T19:59:42.999Z,25.10
2019-04-27T20:02:13.354Z,26.93
2019-04-27T20:04:46.133Z,32.35
2019-04-27T20:07:14.720Z,25.02
2019-04-27T20:09:44.906Z,27.02
2019-04-27T20:12:13.811Z,27.67
2019-04-27T20:14:57.254Z,24.35
2019-04-27T20:17:31.141Z,25.65
2019-04-27T20:20:00.398Z,21.87
2019-04-27T20:22:29.041Z,22.87
2019-04-27T20:24:57.642Z,30.32
2019-04-27T20:27:26.252Z,24.87
2019-04-27T20:29:54.972Z,25.60
2019-04-27T20:32:23.618Z,28.12
2019-04-27T20:34:52.533Z,23.45
2019-04-27T20:37:21.210Z,24.15
2019-04-27T20:39:51.489Z,26.87
2019-04-27T20:42:21.173Z,25.95
2019-04-27T20:44:51.435Z,26.05
2019-04-27T20:47:20.416Z,25.62
2019-04-27T20:49:48.994Z,30.50
2019-04-27T20:52:20.894Z,25.48
2019-04-27T20:54:51.354Z,29.10
2019-04-27T20:57:21.645Z,28.52
2019-04-27T20:59:52.273Z,30.23
2019-04-27T21:02:32.196Z,25.48
2019-04-27T21:05:18.565Z,27.62
2019-04-27T21:07:48.742Z,25.27
2019-04-27T21:10:17.410Z,26.12
2019-04-27T21:12:45.964Z,28.55
2019-04-27T21:15:14.748Z,25.62
2019-04-27T21:17:43.450Z,22.75
2019-04-27T21:20:13.263Z,24.67
2019-04-27T21:22:41.908Z,25.43
2019-04-27T21:25:11.887Z,23.92
2019-04-27T21:27:41.186Z,23.32
2019-04-27T21:30:11.455Z,22.05
2019-04-27T21:32:40.470Z,20.08
2019-04-27T21:35:10.894Z,23.35
2019-04-27T21:37:40.884Z,20.80
2019-04-27T21:40:14.829Z,20.82
2019-04-27T21:42:43.579Z,21.75
2019-04-27T21:45:12.391Z,20.17
2019-04-27T21:47:41.349Z,20.17
2019-04-27T21:50:12.139Z,20.25
2019-04-27T21:53:00.595Z,20.40
2019-04-27T21:55:32.527Z,25.70
2019-04-27T21:58:01.549Z,19.60
2019-04-27T22:00:39.847Z,18.92
2019-04-27T22:03:11.403Z,20.60
2019-04-27T22:05:41.692Z,21.93
2019-04-27T22:08:11.658Z,18.67
2019-04-27T22:10:40.735Z,23.47
2019-04-27T22:13:09.335Z,21.93
2019-04-27T22:15:37.938Z,23.95
2019-04-27T22:18:06.748Z,21.35
2019-04-27T22:20:35.904Z,21.52
2019-04-27T22:23:23.132Z,21.30
2019-04-27T22:25:54.420Z,21.33
2019-04-27T22:28:22.411Z,23.35
2019-04-27T22:30:50.981Z,23.40
2019-04-27T22:33:21.336Z,24.82
2019-04-27T22:35:51.627Z,24.67
2019-04-27T22:38:20.450Z,22.35
2019-04-27T22:40:53.436Z,23.40
2019-04-27T22:43:26.779Z,21.15
2019-04-27T22:45:56.084Z,21.20
2019-04-27T22:48:24.668Z,23.40
2019-04-27T22:50:53.540Z,22.67
2019-04-27T22:53:22.200Z,24.92
2019-04-27T22:56:11.152Z,28.45
2019-04-27T22:59:00.970Z,23.95
2019-04-27T23:01:36.068Z,22.67
2019-04-27T23:04:06.454Z,22.37
2019-04-27T23:06:35.043Z,22.85
2019-04-27T23:09:03.895Z,25.30
2019-04-27T23:11:32.568Z,23.67
2019-04-27T23:14:01.193Z,26.33
2019-04-27T23:16:31.341Z,22.32
2019-04-27T23:19:01.692Z,27.07
2019-04-27T23:21:31.284Z,22.95
2019-04-27T23:24:01.721Z,24.15
2019-04-27T23:26:31.189Z,25.68
2019-04-27T23:29:12.311Z,28.80
2019-04-27T23:31:32.014Z,22.32
2019-04-27T23:34:01.904Z,22.05
2019-04-27T23:36:31.710Z,19.52
2019-04-27T23:39:00.898Z,19.52
2019-04-27T23:41:29.659Z,22.17
2019-04-27T23:43:58.334Z,20.15
2019-04-27T23:46:26.908Z,20.45
2019-04-27T23:48:55.484Z,22.85
2019-04-27T23:51:28.709Z,20.82
2019-04-27T23:53:57.271Z,24.40
2019-04-27T23:56:25.912Z,19.95
2019-04-27T23:58:54.528Z,21.60
